Aviation Digital Data Service (ADDS)

Output produced by METARs form (1248 UTC 21 February 2018)
found at http://www.aviationweather.gov/adds/metars/
 
TAF KRCA 201100Z 2011/2117 32012KT 8000 BLSN BR FEW010 BKN040 QNH2997INS 
     BECMG 2014/2015 32012KT 9999 NSW FEW010 SCT040 QNH3008INS 
     BECMG 2102/2103 22009KT 9999 FEW040 QNH3018INS TXM11/2021Z TNM19/2012Z
       
TAF AMD KRDR 201350Z 2013/2116 33010G15KT 1600 -SN BLSN SCT007 OVC030 620305 QNH3008INS 
     BECMG 2015/2016 33010G15KT 4800 -SN BLSN SCT015 BKN030 OVC050 620307 QNH3009INS 
     BECMG 2018/2019 31012KT 9999 NSW BKN030 620302 QNH3010INS 
     BECMG 2102/2103 26006KT 9999 SCT030 QNH3021INS TXM10/2021Z TNM16/2013Z
       
TAF KRIV 201202Z 2012/2118 35006KT 9999 SKC QNH3002INS 
     BECMG 2018/2019 32009KT 9999 SKC QNH3010INS 
     TEMPO 2021/2102 32012G18KT 
     BECMG 2101/2102 VRB04KT 9999 FEW250 QNH3013INS 
     BECMG 2115/2116 27006KT 9999 FEW100 SCT250 QNH3012INS TX13/2021Z TNM05/2015Z